CheckWX is a tool to help pilots better visualize weather data.  It is not intended as a substitute for an official pre-flight weather briefing.

10:10:50 UTC

KCPS METAR
St Louis Downtown Airport
Cahokia/St Louis, Illinois, USA
Current

18 mins ago

KCPS 250953Z AUTO 35010KT 2 1/2SM -RA BR OVC005 05/04 A2972 RMK AO2 CIG 004V008 SLP065 P0000 T00500039
Observed
Feb-25 @ 09:53 UTC
Wind
  • 350° at 10 KTS
Visibility
2 1/2 SM
Flight Rules
IFR
Conditions
Light Rain, Mist
Cloud Levels
  • Overcast at 500' AGL
Temperature
C / 41°F
Dewpoint
C / 39°F
Humidity
93%
Altimeter
29.72" Hg
Pressure
1006.42 hPa
Current Rain
0.01"
Previous

1 hour ago

KCPS 250853Z AUTO 34009KT 2SM -RA BR OVC008 05/04 A2972 RMK AO2 RAE04B51 CIG 004V009 SLP063 P0000 60004 T00500039 51012
Observed
Feb-25 @ 08:53 UTC
Wind
  • 340° at 9 KTS
Visibility
2 SM
Flight Rules
IFR
Conditions
Light Rain, Mist
Cloud Levels
  • Overcast at 800' AGL
Temperature
C / 41°F
Dewpoint
C / 39°F
Humidity
93%
Altimeter
29.72" Hg
Pressure
1006.42 hPa
Current Rain
0.01"
Previous

2 hours ago

KCPS 250753Z AUTO 36011KT 6SM -RA BR OVC006 06/04 A2971 RMK AO2 RAB53 SLP061 P0000 T00560039
Observed
Feb-25 @ 07:53 UTC
Wind
  • 360° at 11 KTS
Visibility
6 SM
Flight Rules
IFR
Conditions
Light Rain, Mist
Cloud Levels
  • Overcast at 600' AGL
Temperature
C / 43°F
Dewpoint
C / 39°F
Humidity
87%
Altimeter
29.71" Hg
Pressure
1006.12 hPa
Current Rain
0.01"